createdAt,value
2019-04-28T00:01:05.059Z,73.18
2019-04-28T00:03:36.216Z,74.05
2019-04-28T00:06:05.579Z,73.75
2019-04-28T00:08:34.860Z,74.08
2019-04-28T00:11:04.447Z,73.85
2019-04-28T00:13:33.797Z,73.67
2019-04-28T00:16:04.321Z,74.04
2019-04-28T00:18:33.568Z,73.85
2019-04-28T00:21:12.772Z,74.01
2019-04-28T00:24:19.144Z,73.86
2019-04-28T00:26:52.976Z,73.28
2019-04-28T00:29:22.295Z,73.36
2019-04-28T00:31:51.581Z,72.52
2019-04-28T00:34:21.402Z,72.45
2019-04-28T00:36:56.216Z,72.18
2019-04-28T00:39:25.521Z,72.16
2019-04-28T00:41:54.834Z,72.59
2019-04-28T00:44:25.728Z,72.32
2019-04-28T00:46:55.025Z,72.27
2019-04-28T00:49:46.466Z,72.71
2019-04-28T00:52:17.020Z,72.43
2019-04-28T00:57:26.066Z,72.66
2019-04-28T00:59:58.948Z,72.12
2019-04-28T01:02:38.859Z,72.00
2019-04-28T01:05:11.240Z,71.60
2019-04-28T01:07:41.803Z,71.42
2019-04-28T01:10:13.332Z,70.77
2019-04-28T01:12:42.649Z,70.87
2019-04-28T01:15:20.830Z,70.60
2019-04-28T01:18:06.789Z,70.56
2019-04-28T01:20:36.108Z,70.44
2019-04-28T01:23:06.509Z,71.03
2019-04-28T01:25:35.783Z,71.20
2019-04-28T01:28:05.062Z,69.80
2019-04-28T01:31:02.506Z,70.44
2019-04-28T01:33:59.885Z,70.01
2019-04-28T01:36:30.207Z,70.05
2019-04-28T01:39:00.641Z,70.55
2019-04-28T01:41:29.943Z,70.70
2019-04-28T01:44:00.172Z,70.62
2019-04-28T01:46:29.887Z,70.47
2019-04-28T01:48:59.919Z,70.69
2019-04-28T01:51:30.497Z,70.84
2019-04-28T01:54:00.225Z,70.65
2019-04-28T01:56:30.400Z,70.77
2019-04-28T01:59:00.334Z,71.65
2019-04-28T02:01:30.299Z,71.90
2019-04-28T02:04:00.275Z,71.90
2019-04-28T02:06:30.033Z,72.35
2019-04-28T02:09:00.865Z,72.55
2019-04-28T02:11:30.354Z,73.03
2019-04-28T02:13:59.847Z,73.31
2019-04-28T02:16:29.720Z,73.68
2019-04-28T02:18:59.745Z,73.51
2019-04-28T02:21:39.572Z,73.67
2019-04-28T02:24:26.920Z,74.12
2019-04-28T02:26:58.036Z,73.48
2019-04-28T02:29:27.341Z,73.93
2019-04-28T02:31:57.920Z,73.36
2019-04-28T02:34:27.300Z,73.88
2019-04-28T02:36:56.587Z,73.39
2019-04-28T02:39:27.659Z,73.23
2019-04-28T02:41:56.934Z,73.66
2019-04-28T02:44:30.977Z,72.83
2019-04-28T02:47:00.708Z,73.77
2019-04-28T02:49:50.365Z,73.17
2019-04-28T02:52:38.272Z,73.26
2019-04-28T02:55:08.031Z,72.79
2019-04-28T02:57:37.327Z,73.59
2019-04-28T03:00:10.134Z,72.60
2019-04-28T03:02:41.445Z,73.60
2019-04-28T03:05:11.648Z,73.10
2019-04-28T03:07:41.323Z,72.52
2019-04-28T03:10:11.241Z,72.47
2019-04-28T03:12:41.624Z,72.34
2019-04-28T03:15:11.354Z,72.42
2019-04-28T03:17:41.070Z,72.30
2019-04-28T03:20:11.106Z,72.49
2019-04-28T03:22:41.099Z,72.25
2019-04-28T03:25:16.043Z,72.29
2019-04-28T03:27:56.215Z,72.75
2019-04-28T03:30:55.595Z,72.83
2019-04-28T03:33:26.511Z,72.84
2019-04-28T03:35:56.149Z,73.38
2019-04-28T03:38:25.447Z,72.88
2019-04-28T03:40:54.784Z,73.56
2019-04-28T03:43:24.102Z,73.28
2019-04-28T03:46:00.752Z,73.01
2019-04-28T03:48:30.847Z,72.79
2019-04-28T03:51:00.837Z,73.00
2019-04-28T03:53:31.278Z,73.57
2019-04-28T03:56:01.790Z,73.55
2019-04-28T03:58:31.353Z,73.68
2019-04-28T04:01:03.250Z,74.18
2019-04-28T04:03:32.001Z,73.83
2019-04-28T04:06:01.276Z,73.74
2019-04-28T04:08:31.181Z,74.73
2019-04-28T04:11:22.721Z,74.66
2019-04-28T04:14:11.477Z,74.01
2019-04-28T04:17:00.913Z,74.97
2019-04-28T04:19:33.621Z,75.39
2019-04-28T04:22:02.930Z,76.43
2019-04-28T04:24:32.242Z,74.67
2019-04-28T04:27:02.601Z,76.27
2019-04-28T04:29:31.939Z,75.67
2019-04-28T04:32:15.565Z,76.27
2019-04-28T04:34:33.754Z,74.88
2019-04-28T04:37:03.019Z,75.14
2019-04-28T04:39:32.369Z,74.56
2019-04-28T04:42:01.687Z,74.75
2019-04-28T04:44:31.112Z,74.81
2019-04-28T04:47:01.065Z,74.65
2019-04-28T04:49:31.598Z,74.93
2019-04-28T04:52:01.029Z,74.54
2019-04-28T04:54:32.803Z,74.80
2019-04-28T04:57:01.471Z,74.86
2019-04-28T04:59:32.434Z,74.51
2019-04-28T05:02:29.491Z,74.78
2019-04-28T05:04:56.859Z,75.50
2019-04-28T05:07:26.122Z,75.71
2019-04-28T05:09:55.458Z,76.43
2019-04-28T05:12:24.720Z,74.93
2019-04-28T05:14:54.067Z,75.98
2019-04-28T05:17:23.338Z,75.81
2019-04-28T05:19:52.658Z,74.29
2019-04-28T05:22:23.630Z,74.72
2019-04-28T05:25:00.095Z,75.32
2019-04-28T05:27:30.047Z,74.81
2019-04-28T05:30:02.444Z,74.53
2019-04-28T05:32:42.395Z,74.65
2019-04-28T05:35:02.513Z,75.46
2019-04-28T05:37:31.817Z,74.68
2019-04-28T05:40:01.137Z,75.46
2019-04-28T05:42:30.448Z,76.30
2019-04-28T05:45:00.024Z,76.04
2019-04-28T05:47:44.476Z,75.75
2019-04-28T05:50:22.610Z,75.50
2019-04-28T05:53:07.448Z,76.69
2019-04-28T05:56:01.840Z,75.58
2019-04-28T05:58:45.086Z,73.77
2019-04-28T06:01:40.600Z,76.36
2019-04-28T06:04:11.273Z,77.21
2019-04-28T06:06:42.463Z,74.78
2019-04-28T06:09:33.435Z,75.19
2019-04-28T06:12:03.728Z,75.70
2019-04-28T06:14:33.095Z,75.78
2019-04-28T06:17:04.078Z,76.02
2019-04-28T06:19:33.365Z,76.41
2019-04-28T06:22:02.721Z,76.74
2019-04-28T06:24:32.049Z,75.39
2019-04-28T06:27:01.321Z,76.00
2019-04-28T06:29:31.726Z,75.16
2019-04-28T06:32:01.023Z,75.97
2019-04-28T06:34:30.382Z,75.67
2019-04-28T06:36:59.648Z,77.07
2019-04-28T06:39:30.055Z,76.64
2019-04-28T06:41:59.388Z,75.96
2019-04-28T06:44:28.759Z,73.64
2019-04-28T06:46:58.056Z,73.94
2019-04-28T06:49:30.713Z,73.59
2019-04-28T06:52:01.521Z,73.80
2019-04-28T06:54:30.941Z,74.81
2019-04-28T06:57:00.312Z,75.22
2019-04-28T06:59:29.661Z,74.70
2019-04-28T07:01:58.988Z,73.87
2019-04-28T07:04:28.279Z,74.54
2019-04-28T07:06:57.581Z,74.06
2019-04-28T07:09:46.847Z,73.87
2019-04-28T07:12:16.306Z,73.37
2019-04-28T07:14:46.958Z,70.67
2019-04-28T07:17:16.520Z,72.24
2019-04-28T07:19:47.839Z,70.05
2019-04-28T07:22:22.082Z,70.25
2019-04-28T07:24:51.386Z,70.09
2019-04-28T07:27:23.159Z,68.04
2019-04-28T07:29:52.685Z,66.60
2019-04-28T07:32:21.991Z,63.81
2019-04-28T07:34:53.118Z,63.26
2019-04-28T07:37:23.240Z,62.74
2019-04-28T07:39:52.516Z,62.68
2019-04-28T07:42:21.839Z,60.88
2019-04-28T07:44:52.158Z,59.36
2019-04-28T07:47:21.456Z,60.19
2019-04-28T07:49:50.835Z,61.38
2019-04-28T07:52:44.356Z,62.67
2019-04-28T07:55:13.695Z,63.19
2019-04-28T07:57:44.472Z,64.10
2019-04-28T08:00:17.597Z,63.00
2019-04-28T08:02:46.892Z,62.51
2019-04-28T08:05:16.192Z,64.15
2019-04-28T08:07:45.444Z,64.77
2019-04-28T08:10:16.790Z,65.01
2019-04-28T08:12:49.041Z,60.90
2019-04-28T08:15:17.128Z,57.35
2019-04-28T08:17:46.436Z,59.91
2019-04-28T08:20:16.057Z,62.50
2019-04-28T08:22:46.153Z,61.71
2019-04-28T08:25:16.793Z,61.17
2019-04-28T08:27:47.361Z,61.57
2019-04-28T08:30:17.060Z,62.54
2019-04-28T08:32:54.609Z,62.74
2019-04-28T08:35:26.700Z,62.16
2019-04-28T08:37:56.051Z,62.31
2019-04-28T08:40:25.436Z,59.41
2019-04-28T08:42:54.789Z,60.01
2019-04-28T08:45:24.046Z,61.73
2019-04-28T08:47:54.092Z,60.63
2019-04-28T08:50:23.514Z,61.55
2019-04-28T08:52:52.815Z,60.10
2019-04-28T08:55:22.096Z,60.90
2019-04-28T08:57:51.710Z,60.30
2019-04-28T09:00:21.544Z,51.49
2019-04-28T09:02:52.355Z,47.20
2019-04-28T09:05:23.489Z,49.55
2019-04-28T09:07:52.865Z,49.82
2019-04-28T09:10:23.635Z,51.52
2019-04-28T09:12:53.797Z,49.83
2019-04-28T09:15:23.083Z,46.69
2019-04-28T09:17:52.406Z,45.53
2019-04-28T09:20:23.638Z,36.91
2019-04-28T09:22:52.960Z,36.58
2019-04-28T09:25:22.246Z,36.58
2019-04-28T09:27:51.522Z,35.92
2019-04-28T09:30:20.947Z,38.39
2019-04-28T09:32:50.231Z,38.73
2019-04-28T09:35:19.541Z,35.81
2019-04-28T09:37:48.881Z,34.37
2019-04-28T09:40:18.216Z,35.69
2019-04-28T09:43:02.536Z,35.87
2019-04-28T09:45:38.218Z,34.41
2019-04-28T09:48:07.559Z,30.67
2019-04-28T09:50:36.812Z,32.16
2019-04-28T09:53:06.144Z,33.80
2019-04-28T09:55:35.459Z,30.18
2019-04-28T09:58:04.767Z,30.62
2019-04-28T10:00:35.746Z,32.97
2019-04-28T10:03:05.144Z,37.49
2019-04-28T10:05:34.444Z,39.74
2019-04-28T10:08:03.767Z,40.69
2019-04-28T10:10:33.100Z,41.95
2019-04-28T10:13:02.385Z,42.65
2019-04-28T10:15:31.671Z,44.59
2019-04-28T10:18:00.962Z,44.43
2019-04-28T10:20:30.264Z,45.25
2019-04-28T10:22:59.572Z,43.94
2019-04-28T10:25:29.195Z,42.42
2019-04-28T10:27:58.444Z,40.00
2019-04-28T10:30:27.742Z,38.38
2019-04-28T10:32:56.994Z,36.40
2019-04-28T10:35:37.599Z,34.58
2019-04-28T10:38:06.885Z,34.83
2019-04-28T10:40:42.794Z,32.06
2019-04-28T10:43:12.044Z,33.77
2019-04-28T10:45:48.855Z,34.59
2019-04-28T10:48:18.167Z,36.38
2019-04-28T10:50:47.473Z,35.46
2019-04-28T10:53:16.809Z,35.32
2019-04-28T10:55:46.262Z,35.09
2019-04-28T10:58:15.556Z,34.91
2019-04-28T11:00:44.871Z,35.27
2019-04-28T11:03:14.252Z,35.41
2019-04-28T11:05:44.727Z,36.60
2019-04-28T11:08:31.022Z,37.77
2019-04-28T11:11:09.342Z,38.49
2019-04-28T11:13:38.677Z,39.77
2019-04-28T11:16:08.387Z,40.36
2019-04-28T11:18:37.651Z,41.52
2019-04-28T11:21:06.940Z,43.50
2019-04-28T11:23:36.217Z,43.85
2019-04-28T11:26:05.541Z,44.35
2019-04-28T11:28:37.765Z,44.54
2019-04-28T11:31:05.863Z,44.29
2019-04-28T11:34:03.120Z,44.52
2019-04-28T11:36:32.614Z,44.16
2019-04-28T11:39:01.967Z,44.21
2019-04-28T11:41:31.296Z,43.74
2019-04-28T11:44:00.598Z,44.37
2019-04-28T11:46:29.895Z,44.11
2019-04-28T11:48:59.254Z,44.10
2019-04-28T11:51:28.584Z,43.29
2019-04-28T11:53:57.881Z,43.55
2019-04-28T11:56:27.227Z,43.24
2019-04-28T11:58:56.549Z,43.91
2019-04-28T12:01:25.899Z,44.14
2019-04-28T12:03:58.898Z,44.04
2019-04-28T12:06:28.196Z,42.83
2019-04-28T12:09:02.247Z,43.32
2019-04-28T12:11:37.342Z,44.81
2019-04-28T12:14:23.017Z,44.23
2019-04-28T12:17:11.433Z,42.64
2019-04-28T12:19:47.375Z,41.04
2019-04-28T12:22:16.700Z,41.75
2019-04-28T12:24:45.984Z,41.48
2019-04-28T12:27:15.361Z,42.47
2019-04-28T12:29:44.691Z,43.41
2019-04-28T12:32:14.039Z,42.78
2019-04-28T12:34:43.480Z,42.45
2019-04-28T12:37:14.219Z,42.54
2019-04-28T12:39:43.520Z,41.67
2019-04-28T12:42:14.287Z,42.44
2019-04-28T12:44:43.601Z,42.04
2019-04-28T12:47:12.870Z,40.51
2019-04-28T12:49:56.223Z,41.51
2019-04-28T12:52:25.584Z,41.83
2019-04-28T12:54:54.894Z,41.58
2019-04-28T12:57:25.453Z,41.40
2019-04-28T13:00:00.211Z,42.46
2019-04-28T13:02:51.727Z,42.95
2019-04-28T13:05:21.811Z,43.90
2019-04-28T13:07:51.139Z,44.14
2019-04-28T13:10:20.427Z,42.12
2019-04-28T13:12:49.777Z,41.39
2019-04-28T13:15:19.086Z,40.19
2019-04-28T13:17:48.417Z,40.71
2019-04-28T13:20:17.801Z,42.13
2019-04-28T13:22:50.402Z,41.33
2019-04-28T13:25:19.790Z,41.26
2019-04-28T13:27:49.167Z,41.00
2019-04-28T13:30:18.710Z,39.14
2019-04-28T13:32:48.009Z,38.66
2019-04-28T13:35:17.562Z,38.27
2019-04-28T13:37:46.857Z,39.50
2019-04-28T13:40:23.020Z,39.56
2019-04-28T13:42:52.386Z,38.91
2019-04-28T13:45:22.772Z,39.10
2019-04-28T13:47:52.064Z,39.22
2019-04-28T13:50:34.646Z,38.35
2019-04-28T13:53:04.162Z,37.44
2019-04-28T13:55:52.416Z,37.62
2019-04-28T13:58:24.761Z,37.23
2019-04-28T14:01:12.167Z,36.82
2019-04-28T14:04:08.484Z,35.58
2019-04-28T14:06:42.069Z,35.64
2019-04-28T14:09:17.920Z,36.34
2019-04-28T14:11:47.441Z,35.69
2019-04-28T14:14:16.743Z,36.14
2019-04-28T14:16:46.014Z,36.47
2019-04-28T14:19:15.403Z,35.85
2019-04-28T14:21:44.742Z,36.61
2019-04-28T14:24:14.106Z,36.27
2019-04-28T14:26:43.396Z,36.80
2019-04-28T14:29:12.667Z,36.88
2019-04-28T14:31:42.039Z,36.76
2019-04-28T14:34:11.415Z,37.31
2019-04-28T14:36:42.370Z,36.81
2019-04-28T14:39:11.882Z,38.26
2019-04-28T14:41:41.214Z,37.57
2019-04-28T14:44:12.883Z,37.60
2019-04-28T14:46:42.231Z,38.47
2019-04-28T14:49:11.610Z,38.34
2019-04-28T14:51:40.870Z,36.98
2019-04-28T14:54:10.373Z,36.87
2019-04-28T14:56:39.947Z,37.38
2019-04-28T14:59:09.245Z,37.74
2019-04-28T15:01:57.632Z,36.91
2019-04-28T15:04:33.947Z,37.10
2019-04-28T15:07:08.892Z,36.99
2019-04-28T15:09:56.012Z,37.69
2019-04-28T15:12:25.661Z,37.33
2019-04-28T15:14:55.014Z,37.07
2019-04-28T15:17:24.299Z,36.84
2019-04-28T15:19:53.631Z,36.92
2019-04-28T15:22:22.946Z,37.00
2019-04-28T15:24:52.276Z,37.91
2019-04-28T15:27:21.557Z,37.34
2019-04-28T15:29:50.888Z,36.20
2019-04-28T15:32:20.255Z,38.02
2019-04-28T15:34:49.552Z,39.06
2019-04-28T15:37:18.893Z,40.27
2019-04-28T15:39:48.210Z,40.32
2019-04-28T15:42:17.502Z,41.53
2019-04-28T15:44:46.858Z,41.76
2019-04-28T15:47:16.158Z,41.94
2019-04-28T15:49:45.461Z,42.56
2019-04-28T15:52:14.789Z,42.87
2019-04-28T15:54:44.191Z,42.96
2019-04-28T15:57:13.507Z,43.63
2019-04-28T15:59:42.806Z,43.13
2019-04-28T16:02:13.963Z,43.01
2019-04-28T16:04:43.322Z,42.89
2019-04-28T16:07:24.692Z,42.68
2019-04-28T16:09:46.027Z,43.13
2019-04-28T16:12:17.171Z,43.36
2019-04-28T16:14:46.499Z,43.39
2019-04-28T16:17:15.829Z,43.55
2019-04-28T16:19:45.097Z,43.27
2019-04-28T16:22:14.484Z,42.76
2019-04-28T16:24:43.820Z,42.35
2019-04-28T16:27:13.146Z,42.53
2019-04-28T16:29:42.472Z,42.32
2019-04-28T16:32:12.471Z,42.58
2019-04-28T16:34:43.747Z,42.25
2019-04-28T16:37:15.232Z,42.20
2019-04-28T16:39:46.672Z,41.37
2019-04-28T16:42:27.613Z,41.67
2019-04-28T16:45:05.666Z,42.37
2019-04-28T16:47:37.275Z,41.74
2019-04-28T16:50:12.680Z,41.50
2019-04-28T16:52:43.858Z,41.54
2019-04-28T16:55:21.866Z,42.18
2019-04-28T16:58:03.011Z,41.99
2019-04-28T17:00:56.448Z,42.15
2019-04-28T17:03:29.244Z,42.29
2019-04-28T17:06:00.797Z,42.37
2019-04-28T17:08:30.679Z,42.47
2019-04-28T17:11:02.605Z,42.45
2019-04-28T17:13:32.020Z,41.80
2019-04-28T17:16:01.554Z,42.15
2019-04-28T17:18:31.032Z,42.57
2019-04-28T17:21:00.587Z,42.72
2019-04-28T17:23:30.190Z,43.99
2019-04-28T17:25:59.895Z,44.79
2019-04-28T17:28:29.753Z,45.29
2019-04-28T17:30:59.108Z,45.79
2019-04-28T17:33:28.781Z,45.71
2019-04-28T17:35:58.353Z,46.25
2019-04-28T17:38:28.696Z,45.31
2019-04-28T17:40:58.858Z,45.09
2019-04-28T17:43:31.063Z,44.77
2019-04-28T17:46:00.945Z,44.72
2019-04-28T17:48:34.386Z,44.59
2019-04-28T17:51:03.700Z,44.48
2019-04-28T17:53:33.105Z,44.90
2019-04-28T17:56:02.396Z,45.09
2019-04-28T17:58:31.660Z,45.11
2019-04-28T18:01:26.043Z,45.34
2019-04-28T18:04:25.306Z,45.92
2019-04-28T18:09:36.983Z,46.18
2019-04-28T18:12:07.178Z,46.19
2019-04-28T18:14:37.553Z,46.04
2019-04-28T18:17:30.089Z,45.20
2019-04-28T18:19:59.899Z,45.20
2019-04-28T18:22:29.815Z,45.61
2019-04-28T18:24:59.727Z,45.27
2019-04-28T18:27:29.905Z,45.29
2019-04-28T18:30:00.711Z,46.53
2019-04-28T18:32:49.086Z,47.30
2019-04-28T18:35:40.429Z,47.84
2019-04-28T18:38:34.792Z,48.86
2019-04-28T18:41:18.231Z,49.47
2019-04-28T18:44:06.445Z,50.45
2019-04-28T18:46:36.506Z,51.16
2019-04-28T18:49:06.082Z,51.30
2019-04-28T18:51:52.128Z,52.15
2019-04-28T18:54:22.065Z,52.59
2019-04-28T18:56:52.618Z,53.17
2019-04-28T18:59:24.324Z,53.32
2019-04-28T19:02:10.162Z,54.46
2019-04-28T19:04:39.555Z,54.84
2019-04-28T19:07:10.692Z,55.69
2019-04-28T19:09:58.930Z,55.93
2019-04-28T19:12:57.116Z,55.83
2019-04-28T19:15:40.763Z,56.21
2019-04-28T19:18:15.388Z,57.12
2019-04-28T19:20:45.126Z,57.44
2019-04-28T19:23:14.926Z,57.49
2019-04-28T19:25:44.285Z,57.59
2019-04-28T19:28:13.847Z,58.15
2019-04-28T19:30:45.544Z,59.22
2019-04-28T19:33:14.500Z,59.78
2019-04-28T19:35:44.122Z,60.45
2019-04-28T19:38:13.477Z,60.17
2019-04-28T19:40:42.900Z,60.62
2019-04-28T19:43:12.216Z,60.32
2019-04-28T19:45:43.301Z,60.50
2019-04-28T19:48:12.613Z,61.09
2019-04-28T19:50:42.195Z,61.58
2019-04-28T19:53:12.554Z,62.07
2019-04-28T19:55:46.478Z,62.02
2019-04-28T19:58:19.718Z,61.83
2019-04-28T20:00:53.951Z,62.43
2019-04-28T20:03:24.408Z,63.18
2019-04-28T20:05:53.708Z,64.06
2019-04-28T20:08:22.990Z,64.36
2019-04-28T20:10:52.243Z,64.91
2019-04-28T20:13:23.031Z,64.91
2019-04-28T20:15:52.380Z,64.50
2019-04-28T20:18:21.678Z,64.43
2019-04-28T20:20:52.431Z,64.91
2019-04-28T20:23:21.686Z,65.51
2019-04-28T20:25:50.962Z,65.71
2019-04-28T20:28:20.296Z,65.99
2019-04-28T20:30:49.577Z,66.31
2019-04-28T20:33:19.273Z,66.71
2019-04-28T20:35:54.962Z,67.28
2019-04-28T20:38:30.453Z,67.80
2019-04-28T20:41:12.690Z,67.77
2019-04-28T20:43:42.767Z,68.09
2019-04-28T20:46:12.913Z,68.08
2019-04-28T20:48:42.572Z,68.38
2019-04-28T20:51:12.001Z,68.58
2019-04-28T20:53:41.528Z,68.79
2019-04-28T20:56:11.142Z,68.97
2019-04-28T20:58:40.452Z,68.04
2019-04-28T21:01:09.729Z,66.62
2019-04-28T21:03:39.121Z,67.01
2019-04-28T21:06:08.436Z,66.54
2019-04-28T21:08:37.715Z,66.07
2019-04-28T21:11:07.145Z,66.52
2019-04-28T21:13:36.456Z,66.70
2019-04-28T21:16:05.744Z,66.41
2019-04-28T21:18:35.045Z,67.27
2019-04-28T21:21:04.498Z,67.63
2019-04-28T21:23:33.800Z,67.79
2019-04-28T21:26:03.046Z,67.92
2019-04-28T21:28:32.395Z,68.40
2019-04-28T21:31:01.695Z,67.73
2019-04-28T21:33:30.980Z,67.91
2019-04-28T21:36:06.489Z,68.20
2019-04-28T21:38:35.992Z,68.45
2019-04-28T21:41:06.484Z,68.17
2019-04-28T21:43:57.796Z,67.95
2019-04-28T21:46:41.388Z,67.94
2019-04-28T21:49:23.880Z,67.45
2019-04-28T21:51:53.162Z,67.42
2019-04-28T21:54:22.473Z,66.98
2019-04-28T21:56:51.766Z,66.80
2019-04-28T21:59:21.093Z,67.09
2019-04-28T22:01:50.500Z,67.52
2019-04-28T22:04:19.778Z,67.70
2019-04-28T22:06:49.425Z,67.84
2019-04-28T22:09:19.157Z,68.20
2019-04-28T22:11:48.960Z,68.24
2019-04-28T22:14:18.253Z,67.79
2019-04-28T22:17:02.034Z,66.27
2019-04-28T22:19:31.486Z,66.90
2019-04-28T22:22:00.768Z,67.45
2019-04-28T22:24:47.907Z,66.92
2019-04-28T22:27:24.125Z,65.18
2019-04-28T22:29:53.572Z,64.46
2019-04-28T22:32:22.838Z,65.06
2019-04-28T22:34:52.105Z,65.38
2019-04-28T22:37:21.644Z,64.91
2019-04-28T22:39:50.907Z,65.04
2019-04-28T22:42:20.177Z,65.33
2019-04-28T22:44:49.467Z,65.69
2019-04-28T22:47:18.750Z,66.06
2019-04-28T22:49:48.036Z,66.08
2019-04-28T22:52:17.289Z,66.52
2019-04-28T22:55:05.536Z,66.65
2019-04-28T22:58:02.508Z,66.57
2019-04-28T23:00:56.873Z,67.35
2019-04-28T23:03:50.901Z,67.30
2019-04-28T23:06:20.257Z,67.53
2019-04-28T23:08:49.513Z,67.74
2019-04-28T23:11:19.005Z,68.02
2019-04-28T23:13:48.311Z,68.42
2019-04-28T23:16:17.637Z,68.38
2019-04-28T23:18:46.945Z,67.88
2019-04-28T23:21:27.652Z,68.45
2019-04-28T23:23:56.937Z,68.43
2019-04-28T23:26:26.241Z,68.56
2019-04-28T23:28:55.532Z,68.52
2019-04-28T23:31:24.774Z,68.71
2019-04-28T23:33:55.285Z,68.29
2019-04-28T23:36:24.543Z,68.29
2019-04-28T23:39:06.703Z,68.24
2019-04-28T23:42:01.442Z,68.02
2019-04-28T23:44:30.795Z,68.29
2019-04-28T23:47:00.748Z,68.56
2019-04-28T23:49:31.178Z,68.43
2019-04-28T23:52:19.519Z,68.80
2019-04-28T23:54:50.965Z,68.78
2019-04-28T23:57:20.216Z,68.70
2019-04-28T23:59:49.566Z,68.75
